sensor_id;sensor_type;location;lat;lon;timestamp;temperature;humidity
3548;DHT22;1788;49.400;11.092;2023-02-28T00:00:30;1.30;45.70
3548;DHT22;1788;49.400;11.092;2023-02-28T00:02:56;1.30;45.70
3548;DHT22;1788;49.400;11.092;2023-02-28T00:05:23;1.30;45.70
3548;DHT22;1788;49.400;11.092;2023-02-28T00:07:49;1.40;45.80
3548;DHT22;1788;49.400;11.092;2023-02-28T00:10:17;1.40;45.90
3548;DHT22;1788;49.400;11.092;2023-02-28T00:12:43;1.40;45.90
3548;DHT22;1788;49.400;11.092;2023-02-28T00:15:11;1.40;45.90
3548;DHT22;1788;49.400;11.092;2023-02-28T00:17:38;1.40;46.00
3548;DHT22;1788;49.400;11.092;2023-02-28T00:20:05;1.40;46.10
3548;DHT22;1788;49.400;11.092;2023-02-28T00:22:31;1.40;46.20
3548;DHT22;1788;49.400;11.092;2023-02-28T00:24:58;1.30;46.20
3548;DHT22;1788;49.400;11.092;2023-02-28T00:27:24;1.30;46.20
3548;DHT22;1788;49.400;11.092;2023-02-28T00:29:51;1.30;46.30
3548;DHT22;1788;49.400;11.092;2023-02-28T00:32:18;1.30;46.40
3548;DHT22;1788;49.400;11.092;2023-02-28T00:34:45;1.20;46.40
3548;DHT22;1788;49.400;11.092;2023-02-28T00:37:12;1.20;46.50
3548;DHT22;1788;49.400;11.092;2023-02-28T00:39:38;1.20;46.50
3548;DHT22;1788;49.400;11.092;2023-02-28T00:42:06;1.20;46.60
3548;DHT22;1788;49.400;11.092;2023-02-28T00:44:32;1.20;46.70
3548;DHT22;1788;49.400;11.092;2023-02-28T00:46:59;1.20;46.70
3548;DHT22;1788;49.400;11.092;2023-02-28T00:49:26;1.20;46.80
3548;DHT22;1788;49.400;11.092;2023-02-28T00:51:54;1.20;46.80
3548;DHT22;1788;49.400;11.092;2023-02-28T00:54:22;1.20;47.00
3548;DHT22;1788;49.400;11.092;2023-02-28T00:56:48;1.20;47.00
3548;DHT22;1788;49.400;11.092;2023-02-28T00:59:15;1.20;47.00
3548;DHT22;1788;49.400;11.092;2023-02-28T01:01:41;1.20;47.10
3548;DHT22;1788;49.400;11.092;2023-02-28T01:04:07;1.20;47.10
3548;DHT22;1788;49.400;11.092;2023-02-28T01:06:34;1.30;47.20
3548;DHT22;1788;49.400;11.092;2023-02-28T01:09:01;1.20;47.20
3548;DHT22;1788;49.400;11.092;2023-02-28T01:11:27;1.20;47.20
3548;DHT22;1788;49.400;11.092;2023-02-28T01:13:54;1.20;47.30
3548;DHT22;1788;49.400;11.092;2023-02-28T01:16:20;1.20;47.30
3548;DHT22;1788;49.400;11.092;2023-02-28T01:18:47;1.20;47.30
3548;DHT22;1788;49.400;11.092;2023-02-28T01:21:15;1.20;47.50
3548;DHT22;1788;49.400;11.092;2023-02-28T01:23:41;1.20;47.50
3548;DHT22;1788;49.400;11.092;2023-02-28T01:26:09;1.20;47.50
3548;DHT22;1788;49.400;11.092;2023-02-28T01:28:34;1.20;48.10
3548;DHT22;1788;49.400;11.092;2023-02-28T01:31:03;1.20;47.60
3548;DHT22;1788;49.400;11.092;2023-02-28T01:33:29;1.20;47.70
3548;DHT22;1788;49.400;11.092;2023-02-28T01:38:22;1.20;47.80
3548;DHT22;1788;49.400;11.092;2023-02-28T01:40:49;1.20;47.80
3548;DHT22;1788;49.400;11.092;2023-02-28T01:43:19;1.20;47.80
3548;DHT22;1788;49.400;11.092;2023-02-28T01:45:42;1.20;47.90
3548;DHT22;1788;49.400;11.092;2023-02-28T01:48:09;1.20;47.90
3548;DHT22;1788;49.400;11.092;2023-02-28T01:50:36;1.20;48.00
3548;DHT22;1788;49.400;11.092;2023-02-28T01:53:04;1.20;48.00
3548;DHT22;1788;49.400;11.092;2023-02-28T01:55:30;1.20;48.00
3548;DHT22;1788;49.400;11.092;2023-02-28T01:57:57;1.20;48.00
3548;DHT22;1788;49.400;11.092;2023-02-28T02:00:24;1.20;48.00
3548;DHT22;1788;49.400;11.092;2023-02-28T02:02:51;1.20;48.10
3548;DHT22;1788;49.400;11.092;2023-02-28T02:05:18;1.20;48.10
3548;DHT22;1788;49.400;11.092;2023-02-28T02:07:45;1.20;48.20
3548;DHT22;1788;49.400;11.092;2023-02-28T02:15:06;1.20;48.30
3548;DHT22;1788;49.400;11.092;2023-02-28T02:20:04;1.10;48.30
3548;DHT22;1788;49.400;11.092;2023-02-28T02:29:48;1.10;48.50
3548;DHT22;1788;49.400;11.092;2023-02-28T02:34:39;1.00;48.60
3548;DHT22;1788;49.400;11.092;2023-02-28T02:39:36;1.00;48.70
3548;DHT22;1788;49.400;11.092;2023-02-28T02:41:59;1.00;48.70
3548;DHT22;1788;49.400;11.092;2023-02-28T02:46:54;1.00;48.80
3548;DHT22;1788;49.400;11.092;2023-02-28T02:51:47;1.00;48.90
3548;DHT22;1788;49.400;11.092;2023-02-28T02:56:41;0.90;48.90
3548;DHT22;1788;49.400;11.092;2023-02-28T02:59:09;1.00;49.50
3548;DHT22;1788;49.400;11.092;2023-02-28T03:01:35;1.00;49.00
3548;DHT22;1788;49.400;11.092;2023-02-28T03:04:03;1.00;49.10
3548;DHT22;1788;49.400;11.092;2023-02-28T03:06:28;1.00;49.10
3548;DHT22;1788;49.400;11.092;2023-02-28T03:08:55;1.00;49.10
3548;DHT22;1788;49.400;11.092;2023-02-28T03:11:22;1.00;49.10
3548;DHT22;1788;49.400;11.092;2023-02-28T03:16:23;0.90;49.20
3548;DHT22;1788;49.400;11.092;2023-02-28T03:26:04;0.90;49.40
3548;DHT22;1788;49.400;11.092;2023-02-28T03:33:24;0.90;49.40
3548;DHT22;1788;49.400;11.092;2023-02-28T03:38:19;0.90;49.50
3548;DHT22;1788;49.400;11.092;2023-02-28T03:40:46;0.80;49.50
3548;DHT22;1788;49.400;11.092;2023-02-28T03:43:12;0.80;49.50
3548;DHT22;1788;49.400;11.092;2023-02-28T03:45:37;0.80;49.60
3548;DHT22;1788;49.400;11.092;2023-02-28T03:48:07;0.80;49.60
3548;DHT22;1788;49.400;11.092;2023-02-28T03:55:28;0.80;49.70
3548;DHT22;1788;49.400;11.092;2023-02-28T04:00:25;0.80;49.80
3548;DHT22;1788;49.400;11.092;2023-02-28T04:02:49;0.80;49.90
3548;DHT22;1788;49.400;11.092;2023-02-28T04:05:15;0.80;49.90
3548;DHT22;1788;49.400;11.092;2023-02-28T04:07:42;0.80;49.90
3548;DHT22;1788;49.400;11.092;2023-02-28T04:12:36;0.80;49.90
3548;DHT22;1788;49.400;11.092;2023-02-28T04:15:03;0.90;50.00
3548;DHT22;1788;49.400;11.092;2023-02-28T04:17:29;0.90;50.00
3548;DHT22;1788;49.400;11.092;2023-02-28T04:19:56;0.90;50.00
3548;DHT22;1788;49.400;11.092;2023-02-28T04:22:23;0.90;50.00
3548;DHT22;1788;49.400;11.092;2023-02-28T04:24:50;0.80;50.00
3548;DHT22;1788;49.400;11.092;2023-02-28T04:27:17;0.80;50.00
3548;DHT22;1788;49.400;11.092;2023-02-28T04:29:43;0.80;50.00
3548;DHT22;1788;49.400;11.092;2023-02-28T04:32:11;0.80;50.80
3548;DHT22;1788;49.400;11.092;2023-02-28T04:34:37;0.80;50.20
3548;DHT22;1788;49.400;11.092;2023-02-28T04:37:05;0.80;50.80
3548;DHT22;1788;49.400;11.092;2023-02-28T04:39:34;0.80;50.20
3548;DHT22;1788;49.400;11.092;2023-02-28T04:41:59;0.80;50.40
3548;DHT22;1788;49.400;11.092;2023-02-28T04:44:25;0.80;50.30
3548;DHT22;1788;49.400;11.092;2023-02-28T04:46:52;0.90;50.40
3548;DHT22;1788;49.400;11.092;2023-02-28T04:49:19;0.90;50.40
3548;DHT22;1788;49.400;11.092;2023-02-28T04:51:45;0.90;50.40
3548;DHT22;1788;49.400;11.092;2023-02-28T04:54:13;0.90;50.60
3548;DHT22;1788;49.400;11.092;2023-02-28T04:56:39;0.90;50.40
3548;DHT22;1788;49.400;11.092;2023-02-28T04:59:06;0.90;50.40
3548;DHT22;1788;49.400;11.092;2023-02-28T05:01:33;0.90;50.40
3548;DHT22;1788;49.400;11.092;2023-02-28T05:03:59;0.90;50.40
3548;DHT22;1788;49.400;11.092;2023-02-28T05:06:28;0.90;50.50
3548;DHT22;1788;49.400;11.092;2023-02-28T05:08:54;0.90;50.50
3548;DHT22;1788;49.400;11.092;2023-02-28T05:11:23;0.90;50.50
3548;DHT22;1788;49.400;11.092;2023-02-28T05:13:48;0.90;50.60
3548;DHT22;1788;49.400;11.092;2023-02-28T05:16:15;1.00;50.50
3548;DHT22;1788;49.400;11.092;2023-02-28T05:18:41;1.00;50.50
3548;DHT22;1788;49.400;11.092;2023-02-28T05:23:34;1.00;50.60
3548;DHT22;1788;49.400;11.092;2023-02-28T05:26:01;1.00;50.60
3548;DHT22;1788;49.400;11.092;2023-02-28T05:28:28;1.00;50.60
3548;DHT22;1788;49.400;11.092;2023-02-28T05:30:56;1.00;50.60
3548;DHT22;1788;49.400;11.092;2023-02-28T05:33:22;1.00;50.60
3548;DHT22;1788;49.400;11.092;2023-02-28T05:35:50;1.00;50.60
3548;DHT22;1788;49.400;11.092;2023-02-28T05:38:16;1.00;50.60
3548;DHT22;1788;49.400;11.092;2023-02-28T05:40:44;1.00;50.60
3548;DHT22;1788;49.400;11.092;2023-02-28T05:43:10;1.00;50.60
3548;DHT22;1788;49.400;11.092;2023-02-28T05:45:37;1.10;50.70
3548;DHT22;1788;49.400;11.092;2023-02-28T05:48:04;1.10;50.60
3548;DHT22;1788;49.400;11.092;2023-02-28T05:50:30;1.10;50.60
3548;DHT22;1788;49.400;11.092;2023-02-28T05:52:57;1.10;50.60
3548;DHT22;1788;49.400;11.092;2023-02-28T05:55:23;1.10;50.60
3548;DHT22;1788;49.400;11.092;2023-02-28T05:57:51;1.10;50.60
3548;DHT22;1788;49.400;11.092;2023-02-28T06:00:19;1.10;50.60
3548;DHT22;1788;49.400;11.092;2023-02-28T06:02:45;1.10;50.60
3548;DHT22;1788;49.400;11.092;2023-02-28T06:07:39;1.00;50.60
3548;DHT22;1788;49.400;11.092;2023-02-28T06:10:06;1.00;50.60
3548;DHT22;1788;49.400;11.092;2023-02-28T06:12:33;1.00;50.70
3548;DHT22;1788;49.400;11.092;2023-02-28T06:14:59;1.00;50.30
3548;DHT22;1788;49.400;11.092;2023-02-28T06:17:26;1.00;50.80
3548;DHT22;1788;49.400;11.092;2023-02-28T06:19:52;1.00;50.80
3548;DHT22;1788;49.400;11.092;2023-02-28T06:22:19;1.00;50.80
3548;DHT22;1788;49.400;11.092;2023-02-28T06:24:46;1.00;50.80
3548;DHT22;1788;49.400;11.092;2023-02-28T06:27:12;1.00;50.90
3548;DHT22;1788;49.400;11.092;2023-02-28T06:29:40;1.00;51.00
3548;DHT22;1788;49.400;11.092;2023-02-28T06:32:06;0.90;50.90
3548;DHT22;1788;49.400;11.092;2023-02-28T06:34:33;1.00;51.00
3548;DHT22;1788;49.400;11.092;2023-02-28T06:37:00;1.00;50.60
3548;DHT22;1788;49.400;11.092;2023-02-28T06:39:28;1.00;51.10
3548;DHT22;1788;49.400;11.092;2023-02-28T06:41:54;1.00;51.10
3548;DHT22;1788;49.400;11.092;2023-02-28T06:44:21;1.10;51.10
3548;DHT22;1788;49.400;11.092;2023-02-28T06:46:47;1.10;51.10
3548;DHT22;1788;49.400;11.092;2023-02-28T06:49:14;1.10;51.20
3548;DHT22;1788;49.400;11.092;2023-02-28T06:51:42;1.20;51.20
3548;DHT22;1788;49.400;11.092;2023-02-28T06:54:07;1.20;51.20
3548;DHT22;1788;49.400;11.092;2023-02-28T06:56:34;1.30;51.30
3548;DHT22;1788;49.400;11.092;2023-02-28T06:59:01;1.30;51.20
3548;DHT22;1788;49.400;11.092;2023-02-28T07:01:27;1.40;51.30
3548;DHT22;1788;49.400;11.092;2023-02-28T07:03:55;1.50;51.40
3548;DHT22;1788;49.400;11.092;2023-02-28T07:06:21;1.50;51.40
3548;DHT22;1788;49.400;11.092;2023-02-28T07:08:50;1.60;51.30
3548;DHT22;1788;49.400;11.092;2023-02-28T07:11:15;1.60;51.30
3548;DHT22;1788;49.400;11.092;2023-02-28T07:13:43;1.80;51.70
3548;DHT22;1788;49.400;11.092;2023-02-28T07:16:10;1.80;51.40
3548;DHT22;1788;49.400;11.092;2023-02-28T07:18:37;1.90;51.30
3548;DHT22;1788;49.400;11.092;2023-02-28T07:21:05;2.00;51.30
3548;DHT22;1788;49.400;11.092;2023-02-28T07:23:31;2.10;51.30
3548;DHT22;1788;49.400;11.092;2023-02-28T07:25:58;2.20;51.30
3548;DHT22;1788;49.400;11.092;2023-02-28T07:28:25;2.20;51.20
3548;DHT22;1788;49.400;11.092;2023-02-28T07:30:52;2.30;51.20
3548;DHT22;1788;49.400;11.092;2023-02-28T07:33:18;2.40;51.20
3548;DHT22;1788;49.400;11.092;2023-02-28T07:35:45;2.40;51.10
3548;DHT22;1788;49.400;11.092;2023-02-28T07:38:11;2.50;51.10
3548;DHT22;1788;49.400;11.092;2023-02-28T07:40:38;2.60;51.20
3548;DHT22;1788;49.400;11.092;2023-02-28T07:43:05;2.70;51.20
3548;DHT22;1788;49.400;11.092;2023-02-28T07:45:31;2.80;51.10
3548;DHT22;1788;49.400;11.092;2023-02-28T07:47:58;2.90;51.10
3548;DHT22;1788;49.400;11.092;2023-02-28T07:50:25;3.00;51.00
3548;DHT22;1788;49.400;11.092;2023-02-28T07:52:52;3.20;50.90
3548;DHT22;1788;49.400;11.092;2023-02-28T07:55:19;3.20;50.90
3548;DHT22;1788;49.400;11.092;2023-02-28T07:57:46;3.40;50.80
3548;DHT22;1788;49.400;11.092;2023-02-28T08:00:13;3.40;50.70
3548;DHT22;1788;49.400;11.092;2023-02-28T08:02:39;3.50;50.70
3548;DHT22;1788;49.400;11.092;2023-02-28T08:05:06;3.60;50.70
3548;DHT22;1788;49.400;11.092;2023-02-28T08:07:32;3.70;50.60
3548;DHT22;1788;49.400;11.092;2023-02-28T08:10:00;3.90;50.50
3548;DHT22;1788;49.400;11.092;2023-02-28T08:12:26;3.90;50.50
3548;DHT22;1788;49.400;11.092;2023-02-28T08:14:53;4.00;50.50
3548;DHT22;1788;49.400;11.092;2023-02-28T08:17:20;4.20;50.40
3548;DHT22;1788;49.400;11.092;2023-02-28T08:19:47;4.10;50.30
3548;DHT22;1788;49.400;11.092;2023-02-28T08:22:15;4.40;50.20
3548;DHT22;1788;49.400;11.092;2023-02-28T08:24:42;4.30;50.10
3548;DHT22;1788;49.400;11.092;2023-02-28T08:27:08;4.40;50.00
3548;DHT22;1788;49.400;11.092;2023-02-28T08:29:36;4.50;50.00
3548;DHT22;1788;49.400;11.092;2023-02-28T08:32:02;4.60;49.80
3548;DHT22;1788;49.400;11.092;2023-02-28T08:34:29;4.70;49.70
3548;DHT22;1788;49.400;11.092;2023-02-28T08:36:55;4.70;49.60
3548;DHT22;1788;49.400;11.092;2023-02-28T08:39:23;4.90;49.80
3548;DHT22;1788;49.400;11.092;2023-02-28T08:41:49;4.90;49.40
3548;DHT22;1788;49.400;11.092;2023-02-28T08:44:17;5.00;49.80
3548;DHT22;1788;49.400;11.092;2023-02-28T08:46:43;5.00;49.20
3548;DHT22;1788;49.400;11.092;2023-02-28T08:49:10;5.10;49.30
3548;DHT22;1788;49.400;11.092;2023-02-28T08:51:37;5.10;49.00
3548;DHT22;1788;49.400;11.092;2023-02-28T08:54:03;5.20;49.00
3548;DHT22;1788;49.400;11.092;2023-02-28T08:56:30;5.30;48.90
3548;DHT22;1788;49.400;11.092;2023-02-28T08:58:56;5.40;48.90
3548;DHT22;1788;49.400;11.092;2023-02-28T09:01:25;5.80;49.70
3548;DHT22;1788;49.400;11.092;2023-02-28T09:03:51;5.80;49.40
3548;DHT22;1788;49.400;11.092;2023-02-28T09:06:17;6.10;49.60
3548;DHT22;1788;49.400;11.092;2023-02-28T09:08:44;6.50;50.00
3548;DHT22;1788;49.400;11.092;2023-02-28T09:11:11;6.80;49.60
3548;DHT22;1788;49.400;11.092;2023-02-28T09:13:38;7.00;49.00
3548;DHT22;1788;49.400;11.092;2023-02-28T09:16:06;6.90;47.80
3548;DHT22;1788;49.400;11.092;2023-02-28T09:18:34;6.90;47.80
3548;DHT22;1788;49.400;11.092;2023-02-28T09:21:02;6.70;47.30
3548;DHT22;1788;49.400;11.092;2023-02-28T09:23:28;6.30;46.70
3548;DHT22;1788;49.400;11.092;2023-02-28T09:25:55;6.30;46.60
3548;DHT22;1788;49.400;11.092;2023-02-28T09:28:21;6.20;46.80
3548;DHT22;1788;49.400;11.092;2023-02-28T09:30:49;6.10;46.90
3548;DHT22;1788;49.400;11.092;2023-02-28T09:33:15;6.10;47.00
3548;DHT22;1788;49.400;11.092;2023-02-28T09:35:41;6.20;47.10
3548;DHT22;1788;49.400;11.092;2023-02-28T09:38:09;6.30;46.90
3548;DHT22;1788;49.400;11.092;2023-02-28T09:40:37;6.30;47.40
3548;DHT22;1788;49.400;11.092;2023-02-28T09:43:03;6.40;47.30
3548;DHT22;1788;49.400;11.092;2023-02-28T09:45:32;6.40;46.60
3548;DHT22;1788;49.400;11.092;2023-02-28T09:47:58;6.50;46.60
3548;DHT22;1788;49.400;11.092;2023-02-28T09:52:50;6.70;46.40
3548;DHT22;1788;49.400;11.092;2023-02-28T09:55:20;6.90;46.20
3548;DHT22;1788;49.400;11.092;2023-02-28T09:57:46;6.80;45.60
3548;DHT22;1788;49.400;11.092;2023-02-28T10:05:08;6.90;45.60
3548;DHT22;1788;49.400;11.092;2023-02-28T10:10:00;7.00;45.30
3548;DHT22;1788;49.400;11.092;2023-02-28T10:12:26;7.10;45.30
3548;DHT22;1788;49.400;11.092;2023-02-28T10:14:53;7.20;45.20
3548;DHT22;1788;49.400;11.092;2023-02-28T10:17:21;7.40;45.20
3548;DHT22;1788;49.400;11.092;2023-02-28T10:19:49;7.60;45.10
3548;DHT22;1788;49.400;11.092;2023-02-28T10:24:41;8.10;44.80
3548;DHT22;1788;49.400;11.092;2023-02-28T10:29:34;8.40;44.40
3548;DHT22;1788;49.400;11.092;2023-02-28T10:32:01;8.40;44.40
3548;DHT22;1788;49.400;11.092;2023-02-28T10:34:27;8.50;44.20
3548;DHT22;1788;49.400;11.092;2023-02-28T10:36:54;8.60;44.00
3548;DHT22;1788;49.400;11.092;2023-02-28T10:41:47;8.80;43.60
3548;DHT22;1788;49.400;11.092;2023-02-28T10:44:14;8.90;43.50
3548;DHT22;1788;49.400;11.092;2023-02-28T10:46:40;8.90;43.40
3548;DHT22;1788;49.400;11.092;2023-02-28T10:49:12;9.00;43.30
3548;DHT22;1788;49.400;11.092;2023-02-28T10:54:01;9.10;42.90
3548;DHT22;1788;49.400;11.092;2023-02-28T10:56:27;9.10;42.70
3548;DHT22;1788;49.400;11.092;2023-02-28T11:01:22;9.30;42.60
3548;DHT22;1788;49.400;11.092;2023-02-28T11:03:47;9.40;42.50
3548;DHT22;1788;49.400;11.092;2023-02-28T11:11:07;9.40;42.10
3548;DHT22;1788;49.400;11.092;2023-02-28T11:13:35;9.40;42.00
3548;DHT22;1788;49.400;11.092;2023-02-28T11:16:02;9.30;41.70
3548;DHT22;1788;49.400;11.092;2023-02-28T11:18:28;9.30;41.70
3548;DHT22;1788;49.400;11.092;2023-02-28T11:20:54;9.20;41.60
3548;DHT22;1788;49.400;11.092;2023-02-28T11:23:20;9.20;41.60
3548;DHT22;1788;49.400;11.092;2023-02-28T11:30:40;9.10;41.20
3548;DHT22;1788;49.400;11.092;2023-02-28T11:35:36;9.10;41.20
3548;DHT22;1788;49.400;11.092;2023-02-28T11:38:01;9.20;41.10
3548;DHT22;1788;49.400;11.092;2023-02-28T11:45:22;9.60;41.00
3548;DHT22;1788;49.400;11.092;2023-02-28T11:55:11;10.50;39.90
3548;DHT22;1788;49.400;11.092;2023-02-28T11:57:36;10.70;39.60
3548;DHT22;1788;49.400;11.092;2023-02-28T12:24:37;11.70;37.90
3548;DHT22;1788;49.400;11.092;2023-02-28T12:26:58;12.00;37.80
3548;DHT22;1788;49.400;11.092;2023-02-28T12:34:19;12.60;37.40
3548;DHT22;1788;49.400;11.092;2023-02-28T12:36:45;13.60;36.60
3548;DHT22;1788;49.400;11.092;2023-02-28T12:41:41;14.20;35.90
3548;DHT22;1788;49.400;11.092;2023-02-28T12:44:07;15.00;35.20
3548;DHT22;1788;49.400;11.092;2023-02-28T12:46:33;15.70;34.50
3548;DHT22;1788;49.400;11.092;2023-02-28T12:49:00;16.30;33.80
3548;DHT22;1788;49.400;11.092;2023-02-28T12:51:25;16.80;33.10
3548;DHT22;1788;49.400;11.092;2023-02-28T12:53:54;17.40;32.60
3548;DHT22;1788;49.400;11.092;2023-02-28T12:56:22;17.70;31.90
3548;DHT22;1788;49.400;11.092;2023-02-28T12:58:47;17.90;31.60
3548;DHT22;1788;49.400;11.092;2023-02-28T13:10:59;15.00;33.40
3548;DHT22;1788;49.400;11.092;2023-02-28T13:13:27;14.90;32.90
3548;DHT22;1788;49.400;11.092;2023-02-28T13:33:17;12.30;34.00
3548;DHT22;1788;49.400;11.092;2023-02-28T13:38:01;12.20;33.70
3548;DHT22;1788;49.400;11.092;2023-02-28T13:42:48;11.90;33.80
3548;DHT22;1788;49.400;11.092;2023-02-28T13:47:42;13.20;33.40
3548;DHT22;1788;49.400;11.092;2023-02-28T13:52:36;14.00;32.00
3548;DHT22;1788;49.400;11.092;2023-02-28T14:09:45;17.70;30.00
3548;DHT22;1788;49.400;11.092;2023-02-28T14:17:05;18.90;29.40
3548;DHT22;1788;49.400;11.092;2023-02-28T14:19:32;19.20;29.40
3548;DHT22;1788;49.400;11.092;2023-02-28T14:22:03;19.20;29.40
3548;DHT22;1788;49.400;11.092;2023-02-28T14:24:30;19.40;29.40
3548;DHT22;1788;49.400;11.092;2023-02-28T14:36:42;19.00;29.20
3548;DHT22;1788;49.400;11.092;2023-02-28T14:41:36;18.60;29.00
3548;DHT22;1788;49.400;11.092;2023-02-28T14:44:03;18.20;29.10
3548;DHT22;1788;49.400;11.092;2023-02-28T14:46:32;18.20;29.10
3548;DHT22;1788;49.400;11.092;2023-02-28T14:48:56;18.00;29.20
3548;DHT22;1788;49.400;11.092;2023-02-28T14:51:23;18.00;29.20
3548;DHT22;1788;49.400;11.092;2023-02-28T14:53:53;17.90;29.20
3548;DHT22;1788;49.400;11.092;2023-02-28T14:58:50;17.40;29.10
3548;DHT22;1788;49.400;11.092;2023-02-28T15:01:11;17.30;29.30
3548;DHT22;1788;49.400;11.092;2023-02-28T15:03:38;17.30;29.70
3548;DHT22;1788;49.400;11.092;2023-02-28T15:06:06;17.30;29.30
3548;DHT22;1788;49.400;11.092;2023-02-28T15:08:32;17.20;29.20
3548;DHT22;1788;49.400;11.092;2023-02-28T15:20:49;16.70;29.20
3548;DHT22;1788;49.400;11.092;2023-02-28T15:23:15;16.30;29.30
3548;DHT22;1788;49.400;11.092;2023-02-28T15:25:47;16.00;29.40
3548;DHT22;1788;49.400;11.092;2023-02-28T15:28:15;15.90;29.50
3548;DHT22;1788;49.400;11.092;2023-02-28T15:30:49;15.60;29.50
3548;DHT22;1788;49.400;11.092;2023-02-28T15:33:18;15.30;29.50
3548;DHT22;1788;49.400;11.092;2023-02-28T15:35:34;15.00;29.60
3548;DHT22;1788;49.400;11.092;2023-02-28T15:38:02;14.80;29.70
3548;DHT22;1788;49.400;11.092;2023-02-28T15:40:29;13.90;29.90
3548;DHT22;1788;49.400;11.092;2023-02-28T15:47:48;12.80;30.60
3548;DHT22;1788;49.400;11.092;2023-02-28T15:50:14;12.40;30.30
3548;DHT22;1788;49.400;11.092;2023-02-28T15:52:43;11.90;30.40
3548;DHT22;1788;49.400;11.092;2023-02-28T15:57:36;11.10;30.90
3548;DHT22;1788;49.400;11.092;2023-02-28T16:00:03;10.90;31.10
3548;DHT22;1788;49.400;11.092;2023-02-28T16:04:58;10.70;31.50
3548;DHT22;1788;49.400;11.092;2023-02-28T16:07:24;10.50;31.70
3548;DHT22;1788;49.400;11.092;2023-02-28T16:09:51;10.50;31.70
3548;DHT22;1788;49.400;11.092;2023-02-28T16:12:17;10.30;31.70
3548;DHT22;1788;49.400;11.092;2023-02-28T16:14:45;10.20;31.90
3548;DHT22;1788;49.400;11.092;2023-02-28T16:19:38;9.90;33.00
3548;DHT22;1788;49.400;11.092;2023-02-28T16:22:05;9.60;33.00
3548;DHT22;1788;49.400;11.092;2023-02-28T16:24:31;9.50;33.20
3548;DHT22;1788;49.400;11.092;2023-02-28T16:26:58;9.30;33.40
3548;DHT22;1788;49.400;11.092;2023-02-28T16:29:26;9.00;33.40
3548;DHT22;1788;49.400;11.092;2023-02-28T16:31:51;8.80;33.60
3548;DHT22;1788;49.400;11.092;2023-02-28T16:34:18;8.60;33.80
3548;DHT22;1788;49.400;11.092;2023-02-28T16:36:46;8.50;34.00
3548;DHT22;1788;49.400;11.092;2023-02-28T16:39:11;8.30;34.10
3548;DHT22;1788;49.400;11.092;2023-02-28T16:41:38;8.20;34.30
3548;DHT22;1788;49.400;11.092;2023-02-28T16:44:05;7.90;34.60
3548;DHT22;1788;49.400;11.092;2023-02-28T16:46:33;7.90;34.50
3548;DHT22;1788;49.400;11.092;2023-02-28T16:48:58;7.80;34.70
3548;DHT22;1788;49.400;11.092;2023-02-28T16:51:25;7.60;34.80
3548;DHT22;1788;49.400;11.092;2023-02-28T16:53:51;7.50;35.00
3548;DHT22;1788;49.400;11.092;2023-02-28T16:56:20;7.30;35.90
3548;DHT22;1788;49.400;11.092;2023-02-28T16:58:45;7.30;35.30
3548;DHT22;1788;49.400;11.092;2023-02-28T17:01:13;7.10;35.50
3548;DHT22;1788;49.400;11.092;2023-02-28T17:03:39;7.10;35.50
3548;DHT22;1788;49.400;11.092;2023-02-28T17:06:09;7.10;35.70
3548;DHT22;1788;49.400;11.092;2023-02-28T17:08:33;7.00;35.80
3548;DHT22;1788;49.400;11.092;2023-02-28T17:10:59;6.90;35.80
3548;DHT22;1788;49.400;11.092;2023-02-28T17:13:26;6.90;36.00
3548;DHT22;1788;49.400;11.092;2023-02-28T17:15:52;6.90;36.20
3548;DHT22;1788;49.400;11.092;2023-02-28T17:18:19;6.90;36.30
3548;DHT22;1788;49.400;11.092;2023-02-28T17:20:46;6.90;36.40
3548;DHT22;1788;49.400;11.092;2023-02-28T17:23:13;6.80;36.90
3548;DHT22;1788;49.400;11.092;2023-02-28T17:25:40;6.70;36.50
3548;DHT22;1788;49.400;11.092;2023-02-28T17:28:09;6.80;36.60
3548;DHT22;1788;49.400;11.092;2023-02-28T17:30:36;6.70;36.70
3548;DHT22;1788;49.400;11.092;2023-02-28T17:33:03;6.70;36.90
3548;DHT22;1788;49.400;11.092;2023-02-28T17:35:29;6.70;37.00
3548;DHT22;1788;49.400;11.092;2023-02-28T17:37:57;6.70;36.70
3548;DHT22;1788;49.400;11.092;2023-02-28T17:40:23;6.70;37.10
3548;DHT22;1788;49.400;11.092;2023-02-28T17:42:51;6.60;37.30
3548;DHT22;1788;49.400;11.092;2023-02-28T17:45:17;6.60;37.20
3548;DHT22;1788;49.400;11.092;2023-02-28T17:47:45;6.60;37.30
3548;DHT22;1788;49.400;11.092;2023-02-28T17:52:37;6.50;37.40
3548;DHT22;1788;49.400;11.092;2023-02-28T17:55:05;6.40;37.50
3548;DHT22;1788;49.400;11.092;2023-02-28T17:57:31;6.40;37.50
3548;DHT22;1788;49.400;11.092;2023-02-28T17:59:58;6.30;37.60
3548;DHT22;1788;49.400;11.092;2023-02-28T18:02:25;6.30;37.60
3548;DHT22;1788;49.400;11.092;2023-02-28T18:04:52;6.20;37.80
3548;DHT22;1788;49.400;11.092;2023-02-28T18:07:19;6.20;37.70
3548;DHT22;1788;49.400;11.092;2023-02-28T18:09:46;6.20;37.90
3548;DHT22;1788;49.400;11.092;2023-02-28T18:12:12;6.10;37.90
3548;DHT22;1788;49.400;11.092;2023-02-28T18:14:39;6.00;37.90
3548;DHT22;1788;49.400;11.092;2023-02-28T18:17:05;6.00;38.00
3548;DHT22;1788;49.400;11.092;2023-02-28T18:19:32;5.90;38.00
3548;DHT22;1788;49.400;11.092;2023-02-28T18:21:59;5.90;38.10
3548;DHT22;1788;49.400;11.092;2023-02-28T18:24:26;5.80;38.20
3548;DHT22;1788;49.400;11.092;2023-02-28T18:26:54;5.60;38.30
3548;DHT22;1788;49.400;11.092;2023-02-28T18:29:21;5.60;38.30
3548;DHT22;1788;49.400;11.092;2023-02-28T18:31:47;5.60;38.40
3548;DHT22;1788;49.400;11.092;2023-02-28T18:34:14;5.50;38.50
3548;DHT22;1788;49.400;11.092;2023-02-28T18:36:40;5.40;38.60
3548;DHT22;1788;49.400;11.092;2023-02-28T18:39:08;5.40;38.70
3548;DHT22;1788;49.400;11.092;2023-02-28T18:41:34;5.30;38.80
3548;DHT22;1788;49.400;11.092;2023-02-28T18:44:00;5.20;38.90
3548;DHT22;1788;49.400;11.092;2023-02-28T18:46:27;5.20;39.00
3548;DHT22;1788;49.400;11.092;2023-02-28T18:48:54;5.10;39.30
3548;DHT22;1788;49.400;11.092;2023-02-28T18:51:22;5.00;39.20
3548;DHT22;1788;49.400;11.092;2023-02-28T18:53:48;5.00;39.50
3548;DHT22;1788;49.400;11.092;2023-02-28T18:56:15;4.90;39.40
3548;DHT22;1788;49.400;11.092;2023-02-28T18:58:41;4.90;39.50
3548;DHT22;1788;49.400;11.092;2023-02-28T19:03:35;4.80;39.70
3548;DHT22;1788;49.400;11.092;2023-02-28T19:06:01;4.80;39.80
3548;DHT22;1788;49.400;11.092;2023-02-28T19:08:29;4.70;39.90
3548;DHT22;1788;49.400;11.092;2023-02-28T19:10:55;4.70;40.00
3548;DHT22;1788;49.400;11.092;2023-02-28T19:13:23;4.60;40.90
3548;DHT22;1788;49.400;11.092;2023-02-28T19:15:49;4.60;40.20
3548;DHT22;1788;49.400;11.092;2023-02-28T19:18:17;4.50;40.40
3548;DHT22;1788;49.400;11.092;2023-02-28T19:20:44;4.50;40.40
3548;DHT22;1788;49.400;11.092;2023-02-28T19:23:10;4.50;40.50
3548;DHT22;1788;49.400;11.092;2023-02-28T19:28:04;4.40;40.60
3548;DHT22;1788;49.400;11.092;2023-02-28T19:30:30;4.40;40.80
3548;DHT22;1788;49.400;11.092;2023-02-28T19:32:57;4.40;40.90
3548;DHT22;1788;49.400;11.092;2023-02-28T19:35:24;4.30;41.00
3548;DHT22;1788;49.400;11.092;2023-02-28T19:37:51;4.30;41.00
3548;DHT22;1788;49.400;11.092;2023-02-28T19:40:18;4.20;41.10
3548;DHT22;1788;49.400;11.092;2023-02-28T19:42:45;4.30;41.10
3548;DHT22;1788;49.400;11.092;2023-02-28T19:45:11;4.20;41.10
3548;DHT22;1788;49.400;11.092;2023-02-28T19:47:38;4.20;41.20
3548;DHT22;1788;49.400;11.092;2023-02-28T19:50:06;4.10;41.20
3548;DHT22;1788;49.400;11.092;2023-02-28T19:52:32;4.10;41.40
3548;DHT22;1788;49.400;11.092;2023-02-28T19:54:59;4.10;41.60